sensor_id;sensor_type;location;lat;lon;timestamp;pressure;altitude;pressure_sealevel;temperature;humidity
10881;BME280;5493;48.884;8.338;2023-10-08T00:00:44;101098.66;;;18.55;69.78
10881;BME280;5493;48.884;8.338;2023-10-08T00:03:14;101096.94;;;18.71;69.19
10881;BME280;5493;48.884;8.338;2023-10-08T00:05:42;101106.69;;;18.66;67.21
10881;BME280;5493;48.884;8.338;2023-10-08T00:08:08;101099.34;;;18.67;65.20
10881;BME280;5493;48.884;8.338;2023-10-08T00:10:35;101102.34;;;18.87;65.37
10881;BME280;5493;48.884;8.338;2023-10-08T00:13:04;101104.31;;;18.92;65.27
10881;BME280;5493;48.884;8.338;2023-10-08T00:15:33;101104.13;;;18.77;64.90
10881;BME280;5493;48.884;8.338;2023-10-08T00:18:02;101097.09;;;18.81;65.82
10881;BME280;5493;48.884;8.338;2023-10-08T00:20:32;101097.00;;;18.76;65.21
10881;BME280;5493;48.884;8.338;2023-10-08T00:23:08;101101.09;;;18.95;63.29
10881;BME280;5493;48.884;8.338;2023-10-08T00:25:35;101107.69;;;18.99;62.89
10881;BME280;5493;48.884;8.338;2023-10-08T00:28:07;101094.16;;;18.87;66.14
10881;BME280;5493;48.884;8.338;2023-10-08T00:30:39;101089.19;;;18.84;65.59
10881;BME280;5493;48.884;8.338;2023-10-08T00:33:06;101086.59;;;18.94;66.17
10881;BME280;5493;48.884;8.338;2023-10-08T00:35:38;101091.16;;;18.89;66.85
10881;BME280;5493;48.884;8.338;2023-10-08T00:38:05;101096.06;;;18.87;66.38
10881;BME280;5493;48.884;8.338;2023-10-08T00:40:36;101107.41;;;19.00;64.15
10881;BME280;5493;48.884;8.338;2023-10-08T00:43:04;101097.44;;;19.11;64.28
10881;BME280;5493;48.884;8.338;2023-10-08T00:45:36;101099.03;;;19.07;64.69
10881;BME280;5493;48.884;8.338;2023-10-08T00:48:08;101096.13;;;19.13;65.50
10881;BME280;5493;48.884;8.338;2023-10-08T00:50:38;101087.84;;;19.08;66.47
10881;BME280;5493;48.884;8.338;2023-10-08T00:53:09;101100.25;;;18.94;68.26
10881;BME280;5493;48.884;8.338;2023-10-08T00:55:43;101092.72;;;18.85;68.77
10881;BME280;5493;48.884;8.338;2023-10-08T00:58:19;101090.59;;;18.87;70.02
10881;BME280;5493;48.884;8.338;2023-10-08T01:00:50;101084.53;;;18.85;71.09
10881;BME280;5493;48.884;8.338;2023-10-08T01:03:18;101081.25;;;18.83;72.79
10881;BME280;5493;48.884;8.338;2023-10-08T01:05:46;101082.59;;;18.80;74.62
10881;BME280;5493;48.884;8.338;2023-10-08T01:08:13;101076.59;;;18.61;76.27
10881;BME280;5493;48.884;8.338;2023-10-08T01:10:47;101084.16;;;18.54;76.55
10881;BME280;5493;48.884;8.338;2023-10-08T01:13:23;101064.78;;;18.56;77.47
10881;BME280;5493;48.884;8.338;2023-10-08T01:15:52;101070.00;;;18.57;78.83
10881;BME280;5493;48.884;8.338;2023-10-08T01:18:20;101061.13;;;18.50;81.08
10881;BME280;5493;48.884;8.338;2023-10-08T01:20:57;101061.03;;;18.62;80.52
10881;BME280;5493;48.884;8.338;2023-10-08T01:23:33;101061.78;;;18.57;80.84
10881;BME280;5493;48.884;8.338;2023-10-08T01:25:59;101063.47;;;18.58;78.36
10881;BME280;5493;48.884;8.338;2023-10-08T01:28:35;101072.66;;;18.74;77.64
10881;BME280;5493;48.884;8.338;2023-10-08T01:31:02;101071.66;;;18.80;77.47
10881;BME280;5493;48.884;8.338;2023-10-08T01:33:29;101067.06;;;18.86;78.20
10881;BME280;5493;48.884;8.338;2023-10-08T01:35:57;101072.00;;;18.89;78.12
10881;BME280;5493;48.884;8.338;2023-10-08T01:38:27;101071.25;;;18.93;77.45
10881;BME280;5493;48.884;8.338;2023-10-08T01:40:55;101073.22;;;18.98;78.50
10881;BME280;5493;48.884;8.338;2023-10-08T01:43:22;101069.97;;;19.01;77.97
10881;BME280;5493;48.884;8.338;2023-10-08T01:45:52;101080.91;;;19.01;79.44
10881;BME280;5493;48.884;8.338;2023-10-08T01:48:19;101077.88;;;18.97;77.92
10881;BME280;5493;48.884;8.338;2023-10-08T01:50:54;101081.34;;;18.93;77.85
10881;BME280;5493;48.884;8.338;2023-10-08T01:53:21;101077.69;;;18.82;76.57
10881;BME280;5493;48.884;8.338;2023-10-08T01:55:48;101074.91;;;18.77;76.84
10881;BME280;5493;48.884;8.338;2023-10-08T01:58:21;101071.97;;;18.62;79.48
10881;BME280;5493;48.884;8.338;2023-10-08T02:00:48;101071.97;;;18.62;80.43
10881;BME280;5493;48.884;8.338;2023-10-08T02:03:17;101065.63;;;18.40;83.11
10881;BME280;5493;48.884;8.338;2023-10-08T02:05:45;101066.94;;;18.15;85.79
10881;BME280;5493;48.884;8.338;2023-10-08T02:08:12;101059.25;;;18.34;86.26
10881;BME280;5493;48.884;8.338;2023-10-08T02:10:40;101058.25;;;18.40;86.02
10881;BME280;5493;48.884;8.338;2023-10-08T02:13:08;101063.34;;;18.15;89.09
10881;BME280;5493;48.884;8.338;2023-10-08T02:15:36;101056.41;;;17.91;91.73
10881;BME280;5493;48.884;8.338;2023-10-08T02:18:04;101061.22;;;18.00;90.90
10881;BME280;5493;48.884;8.338;2023-10-08T02:20:31;101055.94;;;17.77;93.80
10881;BME280;5493;48.884;8.338;2023-10-08T02:22:58;101056.69;;;17.89;93.84
10881;BME280;5493;48.884;8.338;2023-10-08T02:25:25;101056.09;;;17.87;94.56
10881;BME280;5493;48.884;8.338;2023-10-08T02:27:51;101060.50;;;17.72;96.56
10881;BME280;5493;48.884;8.338;2023-10-08T02:30:18;101065.44;;;17.58;98.81
10881;BME280;5493;48.884;8.338;2023-10-08T02:32:46;101064.97;;;17.49;100.00
10881;BME280;5493;48.884;8.338;2023-10-08T02:35:14;101074.00;;;17.50;100.00
10881;BME280;5493;48.884;8.338;2023-10-08T02:37:41;101068.09;;;17.25;100.00
10881;BME280;5493;48.884;8.338;2023-10-08T02:40:11;101072.00;;;17.45;100.00
10881;BME280;5493;48.884;8.338;2023-10-08T02:42:45;101066.66;;;17.22;100.00
10881;BME280;5493;48.884;8.338;2023-10-08T02:45:12;101063.31;;;17.32;100.00
10881;BME280;5493;48.884;8.338;2023-10-08T02:47:41;101065.47;;;17.46;100.00
10881;BME280;5493;48.884;8.338;2023-10-08T02:50:11;101062.31;;;17.38;100.00
10881;BME280;5493;48.884;8.338;2023-10-08T02:52:42;101060.56;;;17.32;100.00
10881;BME280;5493;48.884;8.338;2023-10-08T02:55:10;101068.44;;;17.45;98.04
10881;BME280;5493;48.884;8.338;2023-10-08T02:57:49;101063.09;;;17.50;96.56
10881;BME280;5493;48.884;8.338;2023-10-08T03:00:17;101060.53;;;17.43;99.49
10881;BME280;5493;48.884;8.338;2023-10-08T03:02:45;101074.44;;;17.30;96.72
10881;BME280;5493;48.884;8.338;2023-10-08T03:05:14;101069.72;;;17.26;95.10
10881;BME280;5493;48.884;8.338;2023-10-08T03:07:43;101068.94;;;17.42;93.46
10881;BME280;5493;48.884;8.338;2023-10-08T03:10:10;101074.94;;;17.44;91.24
10881;BME280;5493;48.884;8.338;2023-10-08T03:12:44;101069.16;;;17.40;91.48
10881;BME280;5493;48.884;8.338;2023-10-08T03:15:12;101071.75;;;17.47;89.53
10881;BME280;5493;48.884;8.338;2023-10-08T03:17:40;101066.31;;;17.47;91.35
10881;BME280;5493;48.884;8.338;2023-10-08T03:20:15;101065.03;;;17.38;90.23
10881;BME280;5493;48.884;8.338;2023-10-08T03:22:55;101056.03;;;17.37;88.65
10881;BME280;5493;48.884;8.338;2023-10-08T03:25:22;101058.09;;;17.30;90.21
10881;BME280;5493;48.884;8.338;2023-10-08T03:27:50;101047.50;;;17.34;91.14
10881;BME280;5493;48.884;8.338;2023-10-08T03:30:19;101043.34;;;17.43;90.59
10881;BME280;5493;48.884;8.338;2023-10-08T03:32:46;101033.44;;;17.53;87.56
10881;BME280;5493;48.884;8.338;2023-10-08T03:35:17;101035.28;;;17.64;85.22
10881;BME280;5493;48.884;8.338;2023-10-08T03:37:53;101043.94;;;17.78;85.04
10881;BME280;5493;48.884;8.338;2023-10-08T03:40:40;101041.31;;;17.83;84.97
10881;BME280;5493;48.884;8.338;2023-10-08T03:43:08;101045.03;;;17.94;84.14
10881;BME280;5493;48.884;8.338;2023-10-08T03:45:44;101046.44;;;17.96;84.62
10881;BME280;5493;48.884;8.338;2023-10-08T03:48:20;101042.94;;;18.01;86.17
10881;BME280;5493;48.884;8.338;2023-10-08T03:50:49;101048.75;;;18.04;85.87
10881;BME280;5493;48.884;8.338;2023-10-08T03:53:22;101050.13;;;18.07;86.92
10881;BME280;5493;48.884;8.338;2023-10-08T03:55:49;101052.94;;;18.12;86.95
10881;BME280;5493;48.884;8.338;2023-10-08T03:58:17;101052.78;;;18.02;88.54
10881;BME280;5493;48.884;8.338;2023-10-08T04:00:53;101057.06;;;17.98;91.99
10881;BME280;5493;48.884;8.338;2023-10-08T04:03:33;101064.13;;;17.94;93.37
10881;BME280;5493;48.884;8.338;2023-10-08T04:06:19;101057.50;;;17.90;94.38
10881;BME280;5493;48.884;8.338;2023-10-08T04:08:53;101045.34;;;17.81;95.37
10881;BME280;5493;48.884;8.338;2023-10-08T04:11:30;101036.00;;;17.77;95.59
10881;BME280;5493;48.884;8.338;2023-10-08T04:14:00;101034.09;;;17.77;95.42
10881;BME280;5493;48.884;8.338;2023-10-08T04:16:27;101029.81;;;17.81;95.42
10881;BME280;5493;48.884;8.338;2023-10-08T04:18:54;101019.00;;;17.86;94.77
10881;BME280;5493;48.884;8.338;2023-10-08T04:21:23;101029.41;;;17.89;94.95
10881;BME280;5493;48.884;8.338;2023-10-08T04:23:53;101022.22;;;17.83;95.72
10881;BME280;5493;48.884;8.338;2023-10-08T04:26:20;101026.06;;;17.87;96.15
10881;BME280;5493;48.884;8.338;2023-10-08T04:28:49;101018.88;;;17.98;94.24
10881;BME280;5493;48.884;8.338;2023-10-08T04:31:20;101019.69;;;17.98;95.51
10881;BME280;5493;48.884;8.338;2023-10-08T04:33:50;101016.44;;;17.80;94.36
10881;BME280;5493;48.884;8.338;2023-10-08T04:36:18;101016.50;;;17.85;94.09
10881;BME280;5493;48.884;8.338;2023-10-08T04:38:46;101008.06;;;17.86;96.65
10881;BME280;5493;48.884;8.338;2023-10-08T04:41:14;101017.75;;;17.77;95.38
10881;BME280;5493;48.884;8.338;2023-10-08T04:43:45;101021.19;;;17.56;96.60
10881;BME280;5493;48.884;8.338;2023-10-08T04:46:14;101024.59;;;17.63;96.83
10881;BME280;5493;48.884;8.338;2023-10-08T04:48:55;101030.91;;;17.63;97.68
10881;BME280;5493;48.884;8.338;2023-10-08T04:51:23;101030.44;;;17.55;98.82
10881;BME280;5493;48.884;8.338;2023-10-08T04:53:51;101031.88;;;17.12;100.00
10881;BME280;5493;48.884;8.338;2023-10-08T04:56:20;101037.84;;;16.98;100.00
10881;BME280;5493;48.884;8.338;2023-10-08T04:58:49;101039.94;;;17.07;100.00
10881;BME280;5493;48.884;8.338;2023-10-08T05:01:18;101038.00;;;16.91;100.00
10881;BME280;5493;48.884;8.338;2023-10-08T05:03:47;101048.56;;;16.88;100.00
10881;BME280;5493;48.884;8.338;2023-10-08T05:06:28;101043.25;;;16.81;100.00
10881;BME280;5493;48.884;8.338;2023-10-08T05:09:16;101045.53;;;16.72;100.00
10881;BME280;5493;48.884;8.338;2023-10-08T05:11:48;101047.41;;;16.72;100.00
10881;BME280;5493;48.884;8.338;2023-10-08T05:14:34;101048.88;;;16.40;100.00
10881;BME280;5493;48.884;8.338;2023-10-08T05:17:05;101042.03;;;16.37;100.00
10881;BME280;5493;48.884;8.338;2023-10-08T05:19:36;101051.75;;;16.21;100.00
10881;BME280;5493;48.884;8.338;2023-10-08T05:22:21;101054.38;;;16.16;100.00
10881;BME280;5493;48.884;8.338;2023-10-08T05:25:10;101055.06;;;16.12;100.00
10881;BME280;5493;48.884;8.338;2023-10-08T05:27:52;101055.41;;;16.27;100.00
10881;BME280;5493;48.884;8.338;2023-10-08T05:30:34;101059.06;;;16.21;100.00
10881;BME280;5493;48.884;8.338;2023-10-08T05:33:08;101065.34;;;16.33;100.00
10881;BME280;5493;48.884;8.338;2023-10-08T05:35:49;101063.56;;;16.04;100.00
10881;BME280;5493;48.884;8.338;2023-10-08T05:38:17;101073.50;;;16.10;100.00
10881;BME280;5493;48.884;8.338;2023-10-08T05:40:51;101075.53;;;16.14;100.00
10881;BME280;5493;48.884;8.338;2023-10-08T05:43:31;101076.25;;;15.98;100.00
10881;BME280;5493;48.884;8.338;2023-10-08T05:46:21;101081.53;;;15.82;100.00
10881;BME280;5493;48.884;8.338;2023-10-08T05:49:12;101082.72;;;15.86;100.00
10881;BME280;5493;48.884;8.338;2023-10-08T05:51:51;101079.66;;;15.82;100.00
10881;BME280;5493;48.884;8.338;2023-10-08T05:54:39;101075.97;;;15.65;100.00
10881;BME280;5493;48.884;8.338;2023-10-08T05:57:24;101080.91;;;15.68;100.00
10881;BME280;5493;48.884;8.338;2023-10-08T06:00:05;101081.41;;;15.65;100.00
10881;BME280;5493;48.884;8.338;2023-10-08T06:03:12;101085.69;;;15.43;100.00
10881;BME280;5493;48.884;8.338;2023-10-08T06:05:58;101085.38;;;15.51;100.00
10881;BME280;5493;48.884;8.338;2023-10-08T06:08:48;101081.28;;;15.30;100.00
10881;BME280;5493;48.884;8.338;2023-10-08T06:11:15;101077.72;;;15.30;100.00
10881;BME280;5493;48.884;8.338;2023-10-08T06:13:54;101067.69;;;15.00;100.00
10881;BME280;5493;48.884;8.338;2023-10-08T06:16:26;101067.63;;;14.89;100.00
10881;BME280;5493;48.884;8.338;2023-10-08T06:18:56;101056.09;;;14.93;100.00
10881;BME280;5493;48.884;8.338;2023-10-08T06:21:23;101061.41;;;15.00;100.00
10881;BME280;5493;48.884;8.338;2023-10-08T06:23:48;101061.88;;;14.97;100.00
10881;BME280;5493;48.884;8.338;2023-10-08T06:26:19;101064.03;;;15.06;100.00
10881;BME280;5493;48.884;8.338;2023-10-08T06:28:49;101065.47;;;15.09;100.00
10881;BME280;5493;48.884;8.338;2023-10-08T06:31:23;101065.38;;;15.15;100.00
10881;BME280;5493;48.884;8.338;2023-10-08T06:33:52;101072.81;;;15.20;100.00
10881;BME280;5493;48.884;8.338;2023-10-08T06:36:18;101068.47;;;15.19;100.00
10881;BME280;5493;48.884;8.338;2023-10-08T06:38:49;101068.97;;;15.27;100.00
10881;BME280;5493;48.884;8.338;2023-10-08T06:41:16;101076.22;;;15.34;100.00
10881;BME280;5493;48.884;8.338;2023-10-08T06:43:45;101071.09;;;15.25;100.00
10881;BME280;5493;48.884;8.338;2023-10-08T06:46:13;101079.88;;;15.39;100.00
10881;BME280;5493;48.884;8.338;2023-10-08T06:48:42;101075.69;;;15.25;100.00
10881;BME280;5493;48.884;8.338;2023-10-08T06:51:09;101077.13;;;15.27;100.00
10881;BME280;5493;48.884;8.338;2023-10-08T06:53:39;101080.38;;;15.48;100.00
10881;BME280;5493;48.884;8.338;2023-10-08T06:56:05;101073.81;;;15.55;100.00
10881;BME280;5493;48.884;8.338;2023-10-08T06:58:35;101085.50;;;15.56;100.00
10881;BME280;5493;48.884;8.338;2023-10-08T07:01:02;101088.69;;;15.53;100.00
10881;BME280;5493;48.884;8.338;2023-10-08T07:03:30;101092.47;;;15.52;100.00
10881;BME280;5493;48.884;8.338;2023-10-08T07:06:00;101106.91;;;15.64;100.00
10881;BME280;5493;48.884;8.338;2023-10-08T07:08:29;101109.22;;;15.90;100.00
10881;BME280;5493;48.884;8.338;2023-10-08T07:10:58;101108.38;;;15.90;100.00
10881;BME280;5493;48.884;8.338;2023-10-08T07:13:26;101109.19;;;15.79;100.00
10881;BME280;5493;48.884;8.338;2023-10-08T07:15:55;101108.50;;;15.83;100.00
10881;BME280;5493;48.884;8.338;2023-10-08T07:18:22;101109.81;;;15.81;100.00
10881;BME280;5493;48.884;8.338;2023-10-08T07:20:52;101117.97;;;15.92;100.00
10881;BME280;5493;48.884;8.338;2023-10-08T07:23:28;101120.94;;;15.91;100.00
10881;BME280;5493;48.884;8.338;2023-10-08T07:26:00;101128.28;;;16.25;100.00
10881;BME280;5493;48.884;8.338;2023-10-08T07:28:36;101136.25;;;16.38;100.00
10881;BME280;5493;48.884;8.338;2023-10-08T07:31:05;101136.81;;;16.29;100.00
10881;BME280;5493;48.884;8.338;2023-10-08T07:33:35;101149.13;;;16.43;100.00
10881;BME280;5493;48.884;8.338;2023-10-08T07:36:02;101160.13;;;16.48;100.00
10881;BME280;5493;48.884;8.338;2023-10-08T07:38:38;101166.19;;;16.61;100.00
10881;BME280;5493;48.884;8.338;2023-10-08T07:41:07;101156.47;;;16.77;100.00
10881;BME280;5493;48.884;8.338;2023-10-08T07:43:34;101159.22;;;16.65;100.00
10881;BME280;5493;48.884;8.338;2023-10-08T07:46:00;101158.59;;;16.75;100.00
10881;BME280;5493;48.884;8.338;2023-10-08T07:48:27;101153.75;;;16.77;100.00
10881;BME280;5493;48.884;8.338;2023-10-08T07:50:55;101154.59;;;16.66;100.00
10881;BME280;5493;48.884;8.338;2023-10-08T07:53:22;101154.69;;;16.48;100.00
10881;BME280;5493;48.884;8.338;2023-10-08T07:55:51;101145.34;;;16.55;100.00
10881;BME280;5493;48.884;8.338;2023-10-08T07:58:18;101148.44;;;16.59;100.00
10881;BME280;5493;48.884;8.338;2023-10-08T08:00:45;101144.31;;;16.56;100.00
10881;BME280;5493;48.884;8.338;2023-10-08T08:03:20;101157.09;;;16.67;100.00
10881;BME280;5493;48.884;8.338;2023-10-08T08:05:48;101154.09;;;16.92;100.00
10881;BME280;5493;48.884;8.338;2023-10-08T08:08:20;101145.16;;;16.97;100.00
10881;BME280;5493;48.884;8.338;2023-10-08T08:10:49;101155.81;;;17.10;100.00
10881;BME280;5493;48.884;8.338;2023-10-08T08:13:24;101151.91;;;17.06;100.00
10881;BME280;5493;48.884;8.338;2023-10-08T08:15:54;101151.25;;;17.27;100.00
10881;BME280;5493;48.884;8.338;2023-10-08T08:18:24;101164.13;;;17.43;100.00
10881;BME280;5493;48.884;8.338;2023-10-08T08:20:59;101165.53;;;17.57;100.00
10881;BME280;5493;48.884;8.338;2023-10-08T08:23:28;101159.09;;;17.63;100.00
10881;BME280;5493;48.884;8.338;2023-10-08T08:25:55;101166.88;;;17.88;100.00
10881;BME280;5493;48.884;8.338;2023-10-08T08:28:38;101176.75;;;17.89;100.00
10881;BME280;5493;48.884;8.338;2023-10-08T08:31:06;101175.13;;;18.05;100.00
10881;BME280;5493;48.884;8.338;2023-10-08T08:33:40;101191.13;;;17.85;100.00
10881;BME280;5493;48.884;8.338;2023-10-08T08:36:19;101192.88;;;18.07;100.00
10881;BME280;5493;48.884;8.338;2023-10-08T08:38:46;101197.69;;;18.00;100.00
10881;BME280;5493;48.884;8.338;2023-10-08T08:41:13;101200.91;;;18.14;100.00
10881;BME280;5493;48.884;8.338;2023-10-08T08:43:47;101190.88;;;18.19;100.00
10881;BME280;5493;48.884;8.338;2023-10-08T08:46:14;101190.75;;;18.26;100.00
10881;BME280;5493;48.884;8.338;2023-10-08T08:48:42;101193.56;;;18.48;100.00
10881;BME280;5493;48.884;8.338;2023-10-08T08:51:10;101200.78;;;18.54;100.00
10881;BME280;5493;48.884;8.338;2023-10-08T08:53:37;101199.72;;;18.55;100.00
10881;BME280;5493;48.884;8.338;2023-10-08T08:56:06;101201.53;;;18.66;100.00
10881;BME280;5493;48.884;8.338;2023-10-08T08:58:35;101194.13;;;18.83;100.00
10881;BME280;5493;48.884;8.338;2023-10-08T09:01:06;101194.13;;;19.05;100.00
10881;BME280;5493;48.884;8.338;2023-10-08T09:03:35;101187.91;;;19.09;100.00
10881;BME280;5493;48.884;8.338;2023-10-08T09:06:02;101181.53;;;18.82;100.00
10881;BME280;5493;48.884;8.338;2023-10-08T09:08:33;101186.38;;;19.18;100.00
10881;BME280;5493;48.884;8.338;2023-10-08T09:11:00;101186.69;;;19.22;100.00
10881;BME280;5493;48.884;8.338;2023-10-08T09:13:28;101187.63;;;19.49;100.00
10881;BME280;5493;48.884;8.338;2023-10-08T09:16:06;101194.91;;;19.65;100.00
10881;BME280;5493;48.884;8.338;2023-10-08T09:18:33;101184.47;;;19.62;100.00
10881;BME280;5493;48.884;8.338;2023-10-08T09:21:14;101176.56;;;19.93;99.84
10881;BME280;5493;48.884;8.338;2023-10-08T09:23:42;101166.72;;;19.92;97.01
10881;BME280;5493;48.884;8.338;2023-10-08T09:26:09;101175.31;;;20.05;98.79
10881;BME280;5493;48.884;8.338;2023-10-08T09:28:39;101179.13;;;20.31;99.62
10881;BME280;5493;48.884;8.338;2023-10-08T09:31:10;101173.53;;;20.53;97.06
10881;BME280;5493;48.884;8.338;2023-10-08T09:33:37;101175.63;;;20.41;95.91
10881;BME280;5493;48.884;8.338;2023-10-08T09:36:05;101180.16;;;20.62;96.42
10881;BME280;5493;48.884;8.338;2023-10-08T09:38:33;101180.59;;;20.86;96.37
10881;BME280;5493;48.884;8.338;2023-10-08T09:40:59;101178.94;;;20.85;97.32
10881;BME280;5493;48.884;8.338;2023-10-08T09:43:28;101178.19;;;20.94;94.85
10881;BME280;5493;48.884;8.338;2023-10-08T09:46:00;101178.97;;;20.95;89.71
10881;BME280;5493;48.884;8.338;2023-10-08T09:48:36;101177.06;;;20.90;88.29
10881;BME280;5493;48.884;8.338;2023-10-08T09:51:05;101160.94;;;21.09;88.73
10881;BME280;5493;48.884;8.338;2023-10-08T09:53:41;101161.47;;;21.06;87.04
10881;BME280;5493;48.884;8.338;2023-10-08T09:56:13;101154.84;;;20.92;89.85
10881;BME280;5493;48.884;8.338;2023-10-08T09:58:41;101167.38;;;21.30;92.10
10881;BME280;5493;48.884;8.338;2023-10-08T10:01:10;101154.69;;;21.14;92.50
10881;BME280;5493;48.884;8.338;2023-10-08T10:03:38;101161.97;;;21.55;92.93
10881;BME280;5493;48.884;8.338;2023-10-08T10:06:12;101159.81;;;21.72;89.02
10881;BME280;5493;48.884;8.338;2023-10-08T10:08:40;101163.72;;;22.06;85.55
10881;BME280;5493;48.884;8.338;2023-10-08T10:11:07;101169.22;;;22.22;85.19
10881;BME280;5493;48.884;8.338;2023-10-08T10:13:38;101167.03;;;22.39;80.27
10881;BME280;5493;48.884;8.338;2023-10-08T10:16:05;101169.50;;;22.35;76.07
10881;BME280;5493;48.884;8.338;2023-10-08T10:18:33;101172.75;;;22.52;76.69
10881;BME280;5493;48.884;8.338;2023-10-08T10:21:25;101168.91;;;22.58;70.68
10881;BME280;5493;48.884;8.338;2023-10-08T10:23:53;101173.25;;;22.90;72.95
10881;BME280;5493;48.884;8.338;2023-10-08T10:26:25;101172.66;;;23.03;68.57
10881;BME280;5493;48.884;8.338;2023-10-08T10:29:21;101173.97;;;23.16;64.92
10881;BME280;5493;48.884;8.338;2023-10-08T10:31:49;101176.09;;;23.34;66.16
10881;BME280;5493;48.884;8.338;2023-10-08T10:34:20;101167.13;;;23.72;68.09
10881;BME280;5493;48.884;8.338;2023-10-08T10:36:50;101162.22;;;24.37;61.33
10881;BME280;5493;48.884;8.338;2023-10-08T10:39:22;101164.44;;;24.64;59.73
10881;BME280;5493;48.884;8.338;2023-10-08T10:41:54;101170.28;;;25.33;55.83
10881;BME280;5493;48.884;8.338;2023-10-08T10:44:23;101173.66;;;25.49;50.98
10881;BME280;5493;48.884;8.338;2023-10-08T10:46:50;101175.13;;;26.16;48.75
10881;BME280;5493;48.884;8.338;2023-10-08T10:49:17;101174.56;;;26.19;47.15
10881;BME280;5493;48.884;8.338;2023-10-08T10:51:49;101173.31;;;26.44;45.31
10881;BME280;5493;48.884;8.338;2023-10-08T10:54:23;101167.19;;;26.47;45.96
10881;BME280;5493;48.884;8.338;2023-10-08T10:56:49;101166.94;;;26.89;44.38
10881;BME280;5493;48.884;8.338;2023-10-08T10:59:29;101161.59;;;26.66;44.65
10881;BME280;5493;48.884;8.338;2023-10-08T11:02:01;101158.63;;;27.03;44.88
10881;BME280;5493;48.884;8.338;2023-10-08T11:04:34;101153.78;;;27.50;44.24
10881;BME280;5493;48.884;8.338;2023-10-08T11:07:14;101144.50;;;27.68;42.53
10881;BME280;5493;48.884;8.338;2023-10-08T11:09:43;101150.16;;;27.99;41.01
10881;BME280;5493;48.884;8.338;2023-10-08T11:12:12;101147.13;;;27.51;41.65
10881;BME280;5493;48.884;8.338;2023-10-08T11:14:46;101147.06;;;27.78;41.75
10881;BME280;5493;48.884;8.338;2023-10-08T11:17:13;101140.88;;;27.81;42.33
10881;BME280;5493;48.884;8.338;2023-10-08T11:19:41;101135.31;;;27.59;41.69
10881;BME280;5493;48.884;8.338;2023-10-08T11:22:11;101124.13;;;28.08;40.44
10881;BME280;5493;48.884;8.338;2023-10-08T11:24:43;101125.63;;;27.70;40.13
10881;BME280;5493;48.884;8.338;2023-10-08T11:27:13;101115.94;;;27.81;40.36
10881;BME280;5493;48.884;8.338;2023-10-08T11:29:44;101123.56;;;27.12;42.04
10881;BME280;5493;48.884;8.338;2023-10-08T11:32:13;101121.88;;;27.52;41.49
10881;BME280;5493;48.884;8.338;2023-10-08T11:34:41;101122.56;;;28.16;40.59
10881;BME280;5493;48.884;8.338;2023-10-08T11:37:11;101118.47;;;28.13;39.52
10881;BME280;5493;48.884;8.338;2023-10-08T11:39:47;101112.78;;;28.49;40.42
10881;BME280;5493;48.884;8.338;2023-10-08T11:42:16;101114.47;;;27.83;40.41
10881;BME280;5493;48.884;8.338;2023-10-08T11:45:00;101121.28;;;27.77;39.24
10881;BME280;5493;48.884;8.338;2023-10-08T11:47:43;101119.16;;;27.61;41.61
10881;BME280;5493;48.884;8.338;2023-10-08T11:50:10;101117.66;;;27.55;40.69
10881;BME280;5493;48.884;8.338;2023-10-08T11:52:42;101112.06;;;27.68;40.58
10881;BME280;5493;48.884;8.338;2023-10-08T11:55:11;101111.63;;;27.97;41.39
10881;BME280;5493;48.884;8.338;2023-10-08T11:57:43;101105.91;;;27.94;41.32
10881;BME280;5493;48.884;8.338;2023-10-08T12:00:12;101108.47;;;27.90;42.02
10881;BME280;5493;48.884;8.338;2023-10-08T12:02:44;101106.53;;;27.68;41.87
10881;BME280;5493;48.884;8.338;2023-10-08T12:05:11;101108.91;;;28.06;42.51
10881;BME280;5493;48.884;8.338;2023-10-08T12:07:45;101109.41;;;28.30;41.27
10881;BME280;5493;48.884;8.338;2023-10-08T12:10:13;101102.81;;;28.40;41.30
10881;BME280;5493;48.884;8.338;2023-10-08T12:12:42;101102.09;;;28.65;41.28
10881;BME280;5493;48.884;8.338;2023-10-08T12:15:11;101092.34;;;28.76;40.45
10881;BME280;5493;48.884;8.338;2023-10-08T12:17:46;101096.13;;;28.80;39.31
10881;BME280;5493;48.884;8.338;2023-10-08T12:20:26;101089.81;;;28.57;38.08
10881;BME280;5493;48.884;8.338;2023-10-08T12:22:59;101094.50;;;28.88;37.48
10881;BME280;5493;48.884;8.338;2023-10-08T12:25:28;101089.00;;;28.65;37.57
10881;BME280;5493;48.884;8.338;2023-10-08T12:27:57;101084.78;;;28.28;37.45
10881;BME280;5493;48.884;8.338;2023-10-08T12:30:27;101083.53;;;28.12;38.45
10881;BME280;5493;48.884;8.338;2023-10-08T12:32:55;101085.41;;;28.56;38.76
10881;BME280;5493;48.884;8.338;2023-10-08T12:35:22;101085.19;;;28.75;38.67
10881;BME280;5493;48.884;8.338;2023-10-08T12:37:49;101087.81;;;28.49;38.99
10881;BME280;5493;48.884;8.338;2023-10-08T12:40:16;101083.50;;;28.34;39.58
10881;BME280;5493;48.884;8.338;2023-10-08T12:42:50;101083.44;;;28.57;39.49
10881;BME280;5493;48.884;8.338;2023-10-08T12:45:17;101079.47;;;28.80;40.25
10881;BME280;5493;48.884;8.338;2023-10-08T12:47:48;101082.13;;;29.02;40.83
10881;BME280;5493;48.884;8.338;2023-10-08T12:50:16;101074.66;;;28.63;40.95
10881;BME280;5493;48.884;8.338;2023-10-08T12:52:43;101072.94;;;28.45;41.06
10881;BME280;5493;48.884;8.338;2023-10-08T12:55:18;101065.91;;;28.08;40.63
10881;BME280;5493;48.884;8.338;2023-10-08T12:57:51;101060.78;;;28.24;41.01
10881;BME280;5493;48.884;8.338;2023-10-08T13:00:22;101062.16;;;28.74;41.59
10881;BME280;5493;48.884;8.338;2023-10-08T13:02:50;101063.31;;;28.91;42.42
10881;BME280;5493;48.884;8.338;2023-10-08T13:05:20;101057.97;;;29.03;41.30
10881;BME280;5493;48.884;8.338;2023-10-08T13:07:53;101057.25;;;28.80;42.17
10881;BME280;5493;48.884;8.338;2023-10-08T13:10:20;101059.91;;;29.02;40.44
10881;BME280;5493;48.884;8.338;2023-10-08T13:12:47;101048.50;;;29.04;41.37
10881;BME280;5493;48.884;8.338;2023-10-08T13:15:15;101038.94;;;28.31;42.15
10881;BME280;5493;48.884;8.338;2023-10-08T13:17:42;101047.75;;;28.72;42.57